Time;durP1;ratioP1;P1;durP2;ratioP2;P2;SDS_P1;SDS_P2;PMS_P1;PMS_P2;Temp;Humidity;BMP_temperature;BMP_pressure;BME280_temperature;BME280_humidity;BME280_pressure;Samples;Min_cycle;Max_cycle;Signal;HPM_P1;HPM_P2
2021/09/10 00:00:41;;;;;;;6.33;4.60;;;;;;;;;;4995464;28;20277;-66
2021/09/10 00:03:08;;;;;;;5.45;4.25;;;;;;;;;;4995950;28;20261;-67
2021/09/10 00:05:36;;;;;;;7.22;4.53;;;;;;;;;;4995612;28;20058;-67
2021/09/10 00:08:03;;;;;;;8.07;4.60;;;;;;;;;;4995741;28;20455;-67
2021/09/10 00:10:29;;;;;;;8.70;4.90;;;;;;;;;;4994555;28;20478;-67
2021/09/10 00:12:54;;;;;;;7.60;4.95;;;;;;;;;;5011069;28;20026;-67
2021/09/10 00:15:19;;;;;;;8.35;4.95;;;;;;;;;;4994274;28;20019;-66
2021/09/10 00:17:47;;;;;;;9.45;4.90;;;;;;;;;;4995673;28;20014;-65
2021/09/10 00:20:12;;;;;;;11.88;5.00;;;;;;;;;;4994950;28;20030;-66
2021/09/10 00:22:37;;;;;;;7.60;4.53;;;;;;;;;;4995516;28;20029;-66
2021/09/10 00:25:03;;;;;;;7.13;4.70;;;;;;;;;;4994960;28;20110;-66
2021/09/10 00:27:30;;;;;;;5.10;4.60;;;;;;;;;;4996029;28;20030;-65
2021/09/10 00:29:55;;;;;;;9.80;4.80;;;;;;;;;;4994161;28;20451;-66
2021/09/10 00:32:23;;;;;;;9.53;4.67;;;;;;;;;;4993856;28;20022;-64
2021/09/10 00:34:48;;;;;;;8.07;4.60;;;;;;;;;;4994889;28;20666;-66
2021/09/10 00:37:13;;;;;;;5.27;4.47;;;;;;;;;;4994184;28;20030;-66
2021/09/10 00:39:41;;;;;;;8.43;4.67;;;;;;;;;;4993835;28;20281;-66
2021/09/10 00:42:06;;;;;;;4.70;4.30;;;;;;;;;;4994826;28;20273;-66
2021/09/10 00:44:31;;;;;;;9.45;4.75;;;;;;;;;;4994698;28;20022;-66
2021/09/10 00:46:57;;;;;;;6.85;4.85;;;;;;;;;;4994685;28;20038;-66
2021/09/10 00:49:24;;;;;;;5.95;4.95;;;;;;;;;;4995033;28;20439;-66
2021/09/10 00:51:52;;;;;;;7.00;4.60;;;;;;;;;;4992742;28;20161;-66
2021/09/10 00:54:17;;;;;;;6.10;4.40;;;;;;;;;;4993928;28;20018;-66
2021/09/10 00:56:45;;;;;;;7.47;4.80;;;;;;;;;;4994943;28;20022;-66
2021/09/10 00:59:10;;;;;;;7.40;4.55;;;;;;;;;;4994542;28;20269;-66
2021/09/10 01:01:35;;;;;;;7.18;4.30;;;;;;;;;;4994380;28;20362;-66
2021/09/10 01:04:01;;;;;;;5.63;4.33;;;;;;;;;;4994473;28;20085;-66
2021/09/10 01:06:27;;;;;;;11.10;4.72;;;;;;;;;;4994676;28;20339;-66
2021/09/10 01:08:53;;;;;;;6.55;4.75;;;;;;;;;;4993081;28;20046;-65
2021/09/10 01:11:19;;;;;;;7.07;4.80;;;;;;;;;;4994570;28;20114;-66
2021/09/10 01:13:50;;;;;;;7.90;4.75;;;;;;;;;;4994236;28;20094;-65
2021/09/10 01:16:16;;;;;;;10.15;4.63;;;;;;;;;;4994194;28;20050;-66
2021/09/10 01:18:41;;;;;;;8.07;4.93;;;;;;;;;;4994600;28;20106;-67
2021/09/10 01:21:07;;;;;;;6.20;4.45;;;;;;;;;;5010202;28;20027;-66
2021/09/10 01:23:32;;;;;;;6.93;4.73;;;;;;;;;;4994297;28;20073;-66
2021/09/10 01:26:00;;;;;;;5.97;4.70;;;;;;;;;;4993486;28;20324;-66
2021/09/10 01:28:25;;;;;;;6.72;5.20;;;;;;;;;;4993669;28;20339;-65
2021/09/10 01:30:50;;;;;;;8.00;5.00;;;;;;;;;;4994554;28;20022;-65
2021/09/10 01:33:15;;;;;;;7.75;4.82;;;;;;;;;;4993578;28;20045;-65
2021/09/10 01:35:41;;;;;;;6.55;4.60;;;;;;;;;;4994406;28;20106;-66
2021/09/10 01:38:10;;;;;;;7.88;4.97;;;;;;;;;;4993515;28;20031;-66
2021/09/10 01:40:38;;;;;;;6.38;4.95;;;;;;;;;;4993468;28;20026;-66
2021/09/10 01:43:07;;;;;;;6.80;4.80;;;;;;;;;;4994139;28;20590;-65
2021/09/10 01:45:33;;;;;;;6.38;4.70;;;;;;;;;;4993468;28;20045;-66
2021/09/10 01:47:58;;;;;;;5.68;4.50;;;;;;;;;;4992821;28;20026;-65
2021/09/10 01:50:26;;;;;;;7.15;4.90;;;;;;;;;;4990735;28;20029;-67
2021/09/10 01:52:55;;;;;;;5.70;4.50;;;;;;;;;;4993202;28;20026;-66
2021/09/10 01:55:21;;;;;;;5.80;4.45;;;;;;;;;;4993034;28;20105;-65
2021/09/10 01:57:47;;;;;;;5.40;4.40;;;;;;;;;;4993929;28;20110;-65
2021/09/10 02:00:13;;;;;;;6.45;4.25;;;;;;;;;;4993412;28;20372;-65
2021/09/10 02:02:38;;;;;;;6.38;5.00;;;;;;;;;;4993894;28;20038;-66
2021/09/10 02:05:04;;;;;;;8.68;4.68;;;;;;;;;;5008801;28;20113;-65
2021/09/10 02:07:29;;;;;;;8.20;4.43;;;;;;;;;;4993762;28;20114;-65
2021/09/10 02:09:54;;;;;;;5.57;4.20;;;;;;;;;;4992603;28;20052;-65
2021/09/10 02:12:20;;;;;;;5.70;4.60;;;;;;;;;;4993836;28;20265;-66
2021/09/10 02:14:47;;;;;;;5.00;4.50;;;;;;;;;;4992364;28;20377;-66
2021/09/10 02:17:12;;;;;;;8.60;4.90;;;;;;;;;;4993703;28;20053;-65
2021/09/10 02:19:38;;;;;;;7.37;5.00;;;;;;;;;;5009051;28;20439;-65
2021/09/10 02:22:04;;;;;;;6.37;4.43;;;;;;;;;;4993435;28;20281;-65
2021/09/10 02:24:29;;;;;;;5.38;4.55;;;;;;;;;;4993759;28;20644;-65
2021/09/10 02:26:54;;;;;;;6.65;4.53;;;;;;;;;;4993072;28;20026;-65
2021/09/10 02:29:19;;;;;;;5.07;4.47;;;;;;;;;;4993989;28;20021;-65
2021/09/10 02:31:45;;;;;;;5.75;4.63;;;;;;;;;;5008651;28;20308;-66
2021/09/10 02:34:12;;;;;;;6.97;4.70;;;;;;;;;;4993884;28;20018;-66
2021/09/10 02:36:37;;;;;;;6.78;4.43;;;;;;;;;;4993831;28;20253;-67
2021/09/10 02:39:05;;;;;;;7.20;5.10;;;;;;;;;;4993802;28;20156;-66
2021/09/10 02:41:30;;;;;;;7.65;5.03;;;;;;;;;;4993344;28;20037;-66
2021/09/10 02:44:00;;;;;;;10.05;5.32;;;;;;;;;;4993628;28;20045;-67
2021/09/10 02:46:25;;;;;;;5.85;4.95;;;;;;;;;;4992897;28;20026;-67
2021/09/10 02:48:51;;;;;;;7.53;4.80;;;;;;;;;;4992596;28;20021;-66
2021/09/10 02:51:16;;;;;;;5.90;4.80;;;;;;;;;;4993299;28;20038;-66
2021/09/10 02:53:41;;;;;;;10.00;4.50;;;;;;;;;;4993520;28;20262;-66
2021/09/10 02:56:06;;;;;;;6.27;4.70;;;;;;;;;;4992081;28;20274;-66
2021/09/10 02:58:34;;;;;;;6.03;4.63;;;;;;;;;;4993072;28;20317;-66
2021/09/10 03:00:59;;;;;;;6.45;4.88;;;;;;;;;;4985836;28;20085;-63
2021/09/10 03:03:28;;;;;;;9.50;5.40;;;;;;;;;;4973652;28;20031;-64
2021/09/10 03:05:53;;;;;;;5.65;5.05;;;;;;;;;;4976083;28;20168;-65
2021/09/10 03:08:23;;;;;;;7.03;4.70;;;;;;;;;;4993156;28;20109;-64
2021/09/10 03:10:51;;;;;;;6.57;4.75;;;;;;;;;;4993466;28;20038;-64
2021/09/10 03:13:17;;;;;;;6.55;5.07;;;;;;;;;;4992880;28;20046;-64
2021/09/10 03:15:42;;;;;;;6.15;4.47;;;;;;;;;;4991637;28;20050;-64
2021/09/10 03:18:07;;;;;;;6.18;4.63;;;;;;;;;;4994667;28;20041;-65
2021/09/10 03:20:35;;;;;;;5.53;4.60;;;;;;;;;;4996356;28;20518;-65
2021/09/10 03:23:00;;;;;;;5.65;4.82;;;;;;;;;;4996939;28;20035;-65
2021/09/10 03:25:26;;;;;;;5.70;4.60;;;;;;;;;;5012285;28;20022;-65
2021/09/10 03:27:51;;;;;;;6.30;4.70;;;;;;;;;;4996960;28;20022;-64
2021/09/10 03:30:20;;;;;;;5.57;4.40;;;;;;;;;;4996159;28;20645;-64
2021/09/10 03:32:46;;;;;;;10.15;5.10;;;;;;;;;;4996074;28;20094;-66
2021/09/10 03:35:13;;;;;;;6.72;4.88;;;;;;;;;;4996565;28;20094;-65
2021/09/10 03:37:38;;;;;;;7.20;4.80;;;;;;;;;;4994124;28;20030;-65
2021/09/10 03:40:06;;;;;;;7.40;4.83;;;;;;;;;;4996276;28;20030;-65
2021/09/10 03:42:31;;;;;;;8.82;4.97;;;;;;;;;;4995959;28;20270;-65
2021/09/10 03:44:56;;;;;;;12.02;4.93;;;;;;;;;;4996071;28;20076;-65
2021/09/10 03:47:24;;;;;;;7.13;4.75;;;;;;;;;;4995575;28;20026;-65
2021/09/10 03:49:49;;;;;;;6.75;4.78;;;;;;;;;;4996525;28;20018;-65
2021/09/10 03:52:15;;;;;;;7.27;4.77;;;;;;;;;;4996529;28;20015;-65
2021/09/10 03:54:40;;;;;;;6.38;4.47;;;;;;;;;;4995245;28;20268;-65
2021/09/10 03:57:06;;;;;;;6.33;4.50;;;;;;;;;;4996133;28;20025;-65
2021/09/10 03:59:31;;;;;;;9.15;4.93;;;;;;;;;;4995983;28;20262;-65
2021/09/10 04:01:58;;;;;;;6.00;4.65;;;;;;;;;;4995430;28;20023;-65
2021/09/10 04:04:26;;;;;;;6.22;5.07;;;;;;;;;;4981364;28;20027;-65
2021/09/10 04:06:51;;;;;;;7.88;4.95;;;;;;;;;;4992115;28;20392;-65
2021/09/10 04:09:16;;;;;;;7.75;4.68;;;;;;;;;;4995745;28;20125;-65
2021/09/10 04:11:42;;;;;;;7.10;5.43;;;;;;;;;;4995466;28;20037;-65
2021/09/10 04:14:07;;;;;;;9.90;4.90;;;;;;;;;;4996064;28;20250;-65
2021/09/10 04:16:35;;;;;;;8.77;5.00;;;;;;;;;;4996023;28;20026;-65
2021/09/10 04:19:00;;;;;;;7.35;5.30;;;;;;;;;;4995455;28;20040;-65
2021/09/10 04:21:26;;;;;;;7.07;5.28;;;;;;;;;;4995642;28;20022;-65
2021/09/10 04:23:52;;;;;;;6.50;4.88;;;;;;;;;;4987475;28;20074;-65
2021/09/10 04:26:17;;;;;;;7.07;5.10;;;;;;;;;;4976481;28;20102;-66
2021/09/10 04:28:46;;;;;;;6.07;5.38;;;;;;;;;;4981845;28;20026;-63
2021/09/10 04:31:12;;;;;;;6.18;5.00;;;;;;;;;;4995042;28;20025;-63
2021/09/10 04:33:39;;;;;;;8.05;5.25;;;;;;;;;;4993196;28;20034;-64
2021/09/10 04:36:04;;;;;;;10.70;5.03;;;;;;;;;;4995403;28;20438;-63
2021/09/10 04:38:32;;;;;;;7.40;5.47;;;;;;;;;;4994949;28;20022;-64
2021/09/10 04:40:59;;;;;;;6.05;5.45;;;;;;;;;;4994178;28;20768;-63
2021/09/10 04:43:25;;;;;;;8.27;5.80;;;;;;;;;;5010646;28;20083;-62
2021/09/10 04:45:50;;;;;;;6.50;5.65;;;;;;;;;;4994185;28;20022;-63
2021/09/10 04:48:18;;;;;;;10.70;5.38;;;;;;;;;;4994761;28;20018;-63
2021/09/10 04:50:43;;;;;;;6.43;4.90;;;;;;;;;;4995108;28;20018;-63
2021/09/10 04:53:08;;;;;;;7.50;5.32;;;;;;;;;;4992148;28;20432;-63
2021/09/10 04:55:33;;;;;;;6.55;5.13;;;;;;;;;;4992575;28;20057;-63
2021/09/10 04:57:59;;;;;;;7.37;5.60;;;;;;;;;;4994565;28;20048;-62
2021/09/10 05:00:26;;;;;;;8.60;5.20;;;;;;;;;;5010223;28;20702;-61
2021/09/10 05:02:54;;;;;;;6.97;5.53;;;;;;;;;;4994561;28;20265;-63
2021/09/10 05:05:19;;;;;;;5.68;5.05;;;;;;;;;;4995188;28;20114;-63
2021/09/10 05:07:44;;;;;;;8.13;5.63;;;;;;;;;;5010397;28;20120;-63
2021/09/10 05:10:10;;;;;;;11.57;5.57;;;;;;;;;;4993156;28;20043;-63
2021/09/10 05:12:38;;;;;;;6.55;5.07;;;;;;;;;;4994704;28;20250;-62
2021/09/10 05:15:07;;;;;;;6.43;4.70;;;;;;;;;;4994427;28;20037;-63
2021/09/10 05:17:32;;;;;;;5.90;5.30;;;;;;;;;;4989016;28;20410;-64
2021/09/10 05:19:58;;;;;;;9.48;5.20;;;;;;;;;;4983912;28;20089;-63
2021/09/10 05:22:25;;;;;;;9.07;5.32;;;;;;;;;;4984980;28;20053;-63
2021/09/10 05:24:51;;;;;;;7.97;5.15;;;;;;;;;;4983835;28;20030;-63
2021/09/10 05:27:16;;;;;;;7.90;5.10;;;;;;;;;;4991801;28;20517;-63
2021/09/10 05:29:43;;;;;;;7.07;5.03;;;;;;;;;;4992573;28;20253;-71
2021/09/10 05:32:09;;;;;;;9.20;5.00;;;;;;;;;;4994086;28;20447;-71
2021/09/10 05:34:35;;;;;;;6.57;5.13;;;;;;;;;;4994310;28;20058;-72
2021/09/10 05:37:04;;;;;;;8.43;5.53;;;;;;;;;;4993026;28;20281;-71
2021/09/10 05:39:32;;;;;;;7.38;5.30;;;;;;;;;;4992061;28;20491;-72
2021/09/10 05:41:59;;;;;;;12.32;5.80;;;;;;;;;;4993431;28;20351;-72
2021/09/10 05:44:27;;;;;;;7.68;6.03;;;;;;;;;;4993608;28;20058;-71
2021/09/10 05:46:52;;;;;;;8.10;5.28;;;;;;;;;;4994330;28;20109;-71
2021/09/10 05:49:17;;;;;;;6.30;5.10;;;;;;;;;;4993367;28;20519;-72
2021/09/10 05:51:42;;;;;;;6.10;5.07;;;;;;;;;;4992884;28;20026;-72
2021/09/10 05:54:07;;;;;;;7.15;5.22;;;;;;;;;;4994162;28;20030;-74
2021/09/10 05:56:33;;;;;;;7.60;4.73;;;;;;;;;;4994206;28;20030;-72
2021/09/10 05:58:58;;;;;;;8.40;5.43;;;;;;;;;;4993814;28;20273;-72
2021/09/10 06:01:24;;;;;;;5.47;4.80;;;;;;;;;;5009069;28;20414;-72
2021/09/10 06:03:49;;;;;;;7.38;4.72;;;;;;;;;;5008270;28;20019;-71
2021/09/10 06:06:17;;;;;;;7.93;4.70;;;;;;;;;;4989631;28;20049;-71
2021/09/10 06:08:42;;;;;;;8.00;5.40;;;;;;;;;;4992516;28;20055;-70
2021/09/10 06:11:07;;;;;;;8.07;5.32;;;;;;;;;;4994008;28;20018;-71
2021/09/10 06:13:35;;;;;;;9.68;5.10;;;;;;;;;;4993280;28;20031;-72
2021/09/10 06:16:00;;;;;;;8.52;5.43;;;;;;;;;;4994136;28;20052;-72
2021/09/10 06:18:28;;;;;;;7.43;5.00;;;;;;;;;;4993949;28;20442;-71
2021/09/10 06:20:55;;;;;;;8.88;5.35;;;;;;;;;;4993287;28;20269;-71
2021/09/10 06:23:23;;;;;;;7.78;5.28;;;;;;;;;;4993766;28;20372;-71
2021/09/10 06:25:51;;;;;;;8.07;5.18;;;;;;;;;;4989868;28;20325;-71
2021/09/10 06:28:16;;;;;;;8.38;4.90;;;;;;;;;;4986549;28;20038;-71
2021/09/10 06:30:43;;;;;;;7.00;4.63;;;;;;;;;;4993023;28;20096;-71
2021/09/10 06:33:11;;;;;;;9.15;4.55;;;;;;;;;;4992691;28;20431;-71
2021/09/10 06:35:36;;;;;;;5.15;4.50;;;;;;;;;;4993928;28;20058;-71
2021/09/10 06:38:04;;;;;;;7.13;6.07;;;;;;;;;;4992771;28;20478;-71
2021/09/10 06:40:31;;;;;;;8.65;6.03;;;;;;;;;;4992602;28;20272;-69
2021/09/10 06:42:56;;;;;;;11.07;5.53;;;;;;;;;;4992068;28;20057;-66
2021/09/10 06:45:22;;;;;;;7.10;4.80;;;;;;;;;;4992794;28;20058;-65
2021/09/10 06:47:48;;;;;;;7.85;4.50;;;;;;;;;;4993457;28;20673;-66
2021/09/10 06:50:15;;;;;;;11.40;5.20;;;;;;;;;;4993374;28;20026;-66
2021/09/10 06:52:41;;;;;;;9.40;5.18;;;;;;;;;;4996089;28;20366;-66
2021/09/10 06:55:07;;;;;;;6.82;4.60;;;;;;;;;;4996560;28;20021;-66
2021/09/10 06:57:32;;;;;;;9.45;5.20;;;;;;;;;;4997259;28;20030;-66
2021/09/10 06:59:57;;;;;;;6.15;5.45;;;;;;;;;;4997237;28;20033;-65
2021/09/10 07:02:25;;;;;;;9.77;4.90;;;;;;;;;;4996917;28;20583;-65
2021/09/10 07:04:53;;;;;;;5.75;4.53;;;;;;;;;;4996251;28;20679;-65
2021/09/10 07:07:18;;;;;;;8.40;4.70;;;;;;;;;;4996694;28;20026;-65
2021/09/10 07:09:43;;;;;;;19.13;14.48;;;;;;;;;;5007849;28;20349;-65
2021/09/10 07:12:09;;;;;;;18.65;12.10;;;;;;;;;;4992794;28;20023;-65
2021/09/10 07:14:34;;;;;;;10.40;6.30;;;;;;;;;;4994570;28;20026;-67
2021/09/10 07:17:02;;;;;;;10.95;5.40;;;;;;;;;;4994696;28;20025;-66
2021/09/10 07:19:27;;;;;;;9.63;4.93;;;;;;;;;;4998034;28;20443;-66
2021/09/10 07:21:52;;;;;;;7.13;4.97;;;;;;;;;;4996360;28;20109;-66
2021/09/10 07:24:19;;;;;;;8.45;6.85;;;;;;;;;;4996431;28;20384;-66
2021/09/10 07:26:44;;;;;;;7.10;5.82;;;;;;;;;;4995481;28;20018;-66
2021/09/10 07:29:10;;;;;;;7.60;6.80;;;;;;;;;;4996197;28;20015;-66
2021/09/10 07:31:35;;;;;;;10.73;6.40;;;;;;;;;;4996244;28;20022;-67
2021/09/10 07:34:00;;;;;;;10.63;5.30;;;;;;;;;;4993188;28;20277;-66
2021/09/10 07:36:25;;;;;;;5.28;4.78;;;;;;;;;;4994858;28;20261;-65
2021/09/10 07:38:53;;;;;;;8.30;4.30;;;;;;;;;;4995800;28;20589;-65
2021/09/10 07:41:18;;;;;;;9.20;5.40;;;;;;;;;;4996131;28;20018;-66
2021/09/10 07:43:43;;;;;;;10.90;4.50;;;;;;;;;;4996103;28;20316;-66
2021/09/10 07:46:08;;;;;;;7.22;4.63;;;;;;;;;;4995110;28;20034;-65
2021/09/10 07:48:33;;;;;;;8.70;4.80;;;;;;;;;;4995756;28;20023;-64
2021/09/10 07:51:02;;;;;;;6.17;4.27;;;;;;;;;;4992488;28;20264;-67
2021/09/10 07:53:27;;;;;;;12.70;4.40;;;;;;;;;;4993957;28;20325;-66
2021/09/10 07:55:52;;;;;;;8.00;4.20;;;;;;;;;;4995686;28;20086;-68
2021/09/10 07:58:20;;;;;;;7.90;4.50;;;;;;;;;;4997845;28;20293;-65
2021/09/10 08:00:45;;;;;;;8.43;5.70;;;;;;;;;;4995941;28;20033;-65
2021/09/10 08:03:10;;;;;;;8.73;6.20;;;;;;;;;;4995331;28;20018;-65
2021/09/10 08:05:37;;;;;;;6.68;5.28;;;;;;;;;;4995544;28;20262;-64
2021/09/10 08:08:05;;;;;;;10.23;7.47;;;;;;;;;;4992677;28;20057;-66
2021/09/10 08:10:30;;;;;;;9.80;4.95;;;;;;;;;;4995174;28;20038;-66
2021/09/10 08:12:55;;;;;;;8.70;4.97;;;;;;;;;;4991575;28;20040;-66
2021/09/10 08:15:20;;;;;;;7.20;4.27;;;;;;;;;;4994712;28;20435;-66
2021/09/10 08:17:45;;;;;;;7.00;4.03;;;;;;;;;;4994581;28;20245;-66
2021/09/10 08:20:13;;;;;;;4.93;4.25;;;;;;;;;;4994737;28;20682;-66
2021/09/10 08:22:39;;;;;;;7.85;4.45;;;;;;;;;;4996899;28;20036;-66
2021/09/10 08:25:06;;;;;;;5.60;3.75;;;;;;;;;;4997616;28;20093;-66
2021/09/10 08:27:31;;;;;;;6.93;4.13;;;;;;;;;;4994990;28;20018;-66
2021/09/10 08:29:57;;;;;;;8.60;4.13;;;;;;;;;;4994599;28;20356;-66
2021/09/10 08:32:22;;;;;;;8.57;3.72;;;;;;;;;;4994799;28;20023;-66
2021/09/10 08:34:47;;;;;;;6.18;3.50;;;;;;;;;;4994826;28;20105;-67
2021/09/10 08:37:17;;;;;;;6.57;3.63;;;;;;;;;;4994941;28;20045;-68
2021/09/10 08:39:42;;;;;;;3.95;3.05;;;;;;;;;;4993729;28;20026;-66
2021/09/10 08:42:09;;;;;;;4.60;3.20;;;;;;;;;;5009872;28;20033;-67
2021/09/10 08:44:37;;;;;;;5.32;3.20;;;;;;;;;;5009999;28;20056;-68
2021/09/10 08:47:06;;;;;;;5.60;3.55;;;;;;;;;;4983995;28;20157;-71
2021/09/10 08:49:32;;;;;;;6.78;3.13;;;;;;;;;;4994691;28;20022;-65
2021/09/10 08:51:57;;;;;;;6.53;3.28;;;;;;;;;;4995071;28;20435;-68
2021/09/10 08:54:22;;;;;;;6.63;2.87;;;;;;;;;;4995098;28;20033;-67
2021/09/10 08:56:48;;;;;;;4.67;3.57;;;;;;;;;;4995124;28;20272;-66
2021/09/10 08:59:20;;;;;;;4.88;2.92;;;;;;;;;;4994933;28;20266;-67
2021/09/10 09:01:47;;;;;;;4.97;2.85;;;;;;;;;;4994890;28;20034;-66
2021/09/10 09:04:13;;;;;;;3.47;2.63;;;;;;;;;;4987478;28;20054;-65
2021/09/10 09:06:38;;;;;;;8.48;3.10;;;;;;;;;;4991856;28;20542;-65
2021/09/10 09:09:03;;;;;;;3.33;2.42;;;;;;;;;;4991058;28;20042;-65
2021/09/10 09:11:31;;;;;;;6.95;3.00;;;;;;;;;;5009655;28;20062;-65
2021/09/10 09:14:02;;;;;;;8.10;3.10;;;;;;;;;;4994550;28;20022;-66
2021/09/10 09:16:30;;;;;;;7.13;2.63;;;;;;;;;;4994911;28;20085;-65
2021/09/10 09:19:00;;;;;;;6.18;3.50;;;;;;;;;;4994079;28;20455;-65
2021/09/10 09:21:29;;;;;;;7.28;3.30;;;;;;;;;;4994785;28;20451;-67
2021/09/10 09:23:56;;;;;;;5.00;2.78;;;;;;;;;;4994901;28;20026;-65
2021/09/10 09:26:26;;;;;;;5.65;3.80;;;;;;;;;;4994205;28;20449;-65
2021/09/10 09:29:05;;;;;;;5.15;3.35;;;;;;;;;;4994267;28;20029;-67
2021/09/10 09:31:33;;;;;;;7.53;3.67;;;;;;;;;;4994477;28;20398;-67
2021/09/10 09:33:58;;;;;;;5.05;3.58;;;;;;;;;;4994431;28;20436;-66
2021/09/10 09:36:23;;;;;;;4.57;3.40;;;;;;;;;;4994585;28;20046;-66
2021/09/10 09:38:49;;;;;;;6.53;3.13;;;;;;;;;;4993063;28;20288;-65
2021/09/10 09:41:16;;;;;;;5.68;3.65;;;;;;;;;;4994337;28;20105;-66
2021/09/10 09:43:42;;;;;;;4.70;3.13;;;;;;;;;;4994692;28;20447;-67
2021/09/10 09:46:13;;;;;;;4.25;2.80;;;;;;;;;;4993234;28;20092;-67
2021/09/10 09:48:39;;;;;;;7.90;3.50;;;;;;;;;;4993856;28;20079;-67
2021/09/10 09:51:05;;;;;;;4.47;2.90;;;;;;;;;;4992940;28;20089;-67
2021/09/10 09:53:31;;;;;;;5.93;3.45;;;;;;;;;;4993750;28;20022;-66
2021/09/10 09:55:56;;;;;;;7.15;2.97;;;;;;;;;;4993342;28;20069;-65
2021/09/10 09:58:21;;;;;;;11.90;3.38;;;;;;;;;;4994085;28;20022;-65
2021/09/10 10:00:47;;;;;;;3.97;3.03;;;;;;;;;;4992770;28;20022;-65
2021/09/10 10:03:13;;;;;;;3.60;2.70;;;;;;;;;;4993786;28;20026;-65
2021/09/10 10:05:44;;;;;;;6.28;2.92;;;;;;;;;;4993587;28;20050;-65
2021/09/10 10:08:11;;;;;;;5.75;2.88;;;;;;;;;;4992596;28;20111;-65
2021/09/10 10:10:55;;;;;;;6.47;3.45;;;;;;;;;;4993356;28;20026;-65
2021/09/10 10:13:24;;;;;;;7.93;2.83;;;;;;;;;;4993844;28;20037;-65
2021/09/10 10:15:54;;;;;;;4.47;2.75;;;;;;;;;;4993302;28;20026;-65
2021/09/10 10:18:34;;;;;;;6.25;2.55;;;;;;;;;;4993811;28;20077;-65
2021/09/10 10:20:59;;;;;;;2.72;2.13;;;;;;;;;;4992591;28;20032;-65
2021/09/10 10:23:43;;;;;;;5.80;2.03;;;;;;;;;;4993938;28;20018;-65
2021/09/10 10:26:35;;;;;;;4.43;1.80;;;;;;;;;;4995579;28;20713;-65
2021/09/10 10:29:11;;;;;;;4.60;1.70;;;;;;;;;;4997939;28;20433;-65
2021/09/10 10:31:54;;;;;;;4.28;1.52;;;;;;;;;;4995954;28;20058;-67
2021/09/10 10:34:20;;;;;;;2.58;1.75;;;;;;;;;;4996517;28;20113;-66
2021/09/10 10:36:46;;;;;;;2.10;1.70;;;;;;;;;;4996869;28;20105;-65
2021/09/10 10:39:14;;;;;;;4.38;1.80;;;;;;;;;;4997076;28;20098;-67
2021/09/10 10:41:46;;;;;;;1.77;1.60;;;;;;;;;;4997796;28;20050;-65
2021/09/10 10:44:30;;;;;;;2.22;1.55;;;;;;;;;;4997892;28;20026;-65
2021/09/10 10:47:10;;;;;;;2.25;1.63;;;;;;;;;;4996772;28;20030;-65
2021/09/10 10:49:36;;;;;;;2.60;1.80;;;;;;;;;;4997713;28;20027;-67
2021/09/10 10:52:01;;;;;;;3.13;1.83;;;;;;;;;;4997755;28;20074;-65
2021/09/10 10:54:28;;;;;;;2.43;1.80;;;;;;;;;;4996993;28;20341;-66
2021/09/10 10:56:53;;;;;;;4.50;1.70;;;;;;;;;;4996101;28;20270;-66
2021/09/10 10:59:21;;;;;;;5.57;1.90;;;;;;;;;;4996897;28;20053;-65
2021/09/10 11:02:05;;;;;;;2.60;1.90;;;;;;;;;;4991751;28;20109;-65
2021/09/10 11:04:38;;;;;;;2.33;1.92;;;;;;;;;;4994195;28;20045;-66
2021/09/10 11:07:04;;;;;;;2.63;1.85;;;;;;;;;;4984569;28;20422;-65
2021/09/10 11:09:29;;;;;;;3.80;1.85;;;;;;;;;;4995584;28;20118;-65
2021/09/10 11:11:57;;;;;;;3.50;1.85;;;;;;;;;;4996946;28;20079;-67
2021/09/10 11:14:31;;;;;;;5.50;2.20;;;;;;;;;;4996583;28;20023;-67
2021/09/10 11:17:25;;;;;;;2.23;1.87;;;;;;;;;;4995995;28;20041;-67
2021/09/10 11:19:54;;;;;;;4.22;1.60;;;;;;;;;;4995845;28;20046;-66
2021/09/10 11:22:19;;;;;;;2.80;1.75;;;;;;;;;;4997018;28;20451;-66
2021/09/10 11:24:48;;;;;;;4.40;1.92;;;;;;;;;;5011579;28;20116;-66
2021/09/10 11:27:28;;;;;;;2.45;1.85;;;;;;;;;;4996842;28;20026;-66
2021/09/10 11:29:54;;;;;;;3.65;1.90;;;;;;;;;;4996285;28;20089;-66
2021/09/10 11:32:22;;;;;;;4.47;1.70;;;;;;;;;;4996728;28;20023;-66
2021/09/10 11:34:49;;;;;;;2.80;2.00;;;;;;;;;;4993541;28;20435;-65
2021/09/10 11:37:25;;;;;;;3.13;1.65;;;;;;;;;;4980719;28;20039;-66
2021/09/10 11:39:53;;;;;;;5.60;1.80;;;;;;;;;;4993510;28;20053;-65
2021/09/10 11:42:37;;;;;;;2.97;1.70;;;;;;;;;;4996741;28;20030;-67
2021/09/10 11:45:04;;;;;;;1.90;1.52;;;;;;;;;;4995915;28;20505;-66
2021/09/10 11:47:29;;;;;;;2.47;1.63;;;;;;;;;;4994963;28;20034;-66
2021/09/10 11:49:58;;;;;;;2.00;1.70;;;;;;;;;;5006469;28;20109;-67
2021/09/10 11:52:35;;;;;;;1.75;1.60;;;;;;;;;;4995892;28;20030;-66
2021/09/10 11:55:06;;;;;;;2.03;1.58;;;;;;;;;;4991510;28;20018;-67
2021/09/10 11:57:34;;;;;;;1.77;1.60;;;;;;;;;;4994552;28;20355;-66
2021/09/10 12:00:00;;;;;;;2.88;1.90;;;;;;;;;;4996603;28;20022;-65
2021/09/10 12:02:26;;;;;;;2.38;2.17;;;;;;;;;;4995631;28;20091;-67
2021/09/10 12:04:55;;;;;;;4.22;2.08;;;;;;;;;;4987478;28;20026;-67
2021/09/10 12:07:25;;;;;;;4.38;1.77;;;;;;;;;;4995924;28;20448;-66
2021/09/10 12:09:52;;;;;;;4.43;2.10;;;;;;;;;;4988815;28;20130;-66
2021/09/10 12:12:19;;;;;;;3.60;2.38;;;;;;;;;;4976536;28;20491;-66
2021/09/10 12:14:44;;;;;;;1.73;1.60;;;;;;;;;;4992801;28;20022;-66
2021/09/10 12:17:09;;;;;;;2.55;1.88;;;;;;;;;;4995762;28;20435;-66
2021/09/10 12:19:55;;;;;;;4.50;1.83;;;;;;;;;;4995321;28;20101;-65
2021/09/10 12:22:20;;;;;;;;;;;;;;;;;;4995023;28;20393;-66
2021/09/10 12:24:48;;;;;;;1.73;1.57;;;;;;;;;;4995691;28;20328;-66
2021/09/10 12:27:15;;;;;;;2.15;1.60;;;;;;;;;;4995679;28;20730;-66
2021/09/10 12:29:40;;;;;;;1.88;1.70;;;;;;;;;;4995216;28;20034;-66
2021/09/10 12:32:05;;;;;;;1.77;1.67;;;;;;;;;;4995803;28;20097;-66
2021/09/10 12:34:33;;;;;;;2.30;1.60;;;;;;;;;;4995738;28;20280;-66
2021/09/10 12:36:58;;;;;;;2.83;2.22;;;;;;;;;;4992874;28;20329;-66
2021/09/10 12:39:23;;;;;;;2.20;1.77;;;;;;;;;;4994563;28;20073;-66
2021/09/10 12:41:49;;;;;;;7.30;6.55;;;;;;;;;;4989593;28;20516;-65
2021/09/10 12:44:15;;;;;;;12.60;11.23;;;;;;;;;;4995186;28;20026;-66
2021/09/10 12:46:40;;;;;;;4.65;2.00;;;;;;;;;;4989097;28;20030;-66
2021/09/10 12:49:06;;;;;;;1.77;1.60;;;;;;;;;;4989076;28;20069;-68
2021/09/10 12:51:33;;;;;;;3.42;2.50;;;;;;;;;;4993784;28;20320;-67
2021/09/10 12:53:59;;;;;;;2.28;1.80;;;;;;;;;;4994762;28;20037;-66
2021/09/10 12:56:27;;;;;;;2.22;2.00;;;;;;;;;;5007749;28;20057;-65
2021/09/10 12:58:54;;;;;;;3.17;1.70;;;;;;;;;;4993578;28;20032;-63
2021/09/10 13:01:20;;;;;;;3.10;2.10;;;;;;;;;;4990926;28;20225;-64
2021/09/10 13:03:48;;;;;;;3.55;3.25;;;;;;;;;;4993894;28;20097;-63
2021/09/10 13:06:13;;;;;;;3.40;3.10;;;;;;;;;;4993622;28;20110;-63
2021/09/10 13:08:41;;;;;;;2.63;2.03;;;;;;;;;;4994053;28;20128;-63
2021/09/10 13:11:06;;;;;;;2.70;1.92;;;;;;;;;;4992370;28;20053;-63
2021/09/10 13:13:33;;;;;;;2.33;1.90;;;;;;;;;;4994367;28;20068;-64
2021/09/10 13:16:01;;;;;;;2.85;2.10;;;;;;;;;;4994182;28;20022;-65
2021/09/10 13:18:27;;;;;;;2.63;2.00;;;;;;;;;;4996236;28;20045;-65
2021/09/10 13:20:52;;;;;;;2.00;1.90;;;;;;;;;;4993704;28;20676;-65
2021/09/10 13:23:19;;;;;;;3.97;2.23;;;;;;;;;;4993261;28;20033;-65
2021/09/10 13:25:45;;;;;;;2.22;2.03;;;;;;;;;;4994892;28;20270;-65
2021/09/10 13:28:10;;;;;;;2.83;2.15;;;;;;;;;;4994704;28;20041;-65
2021/09/10 13:30:35;;;;;;;2.30;2.10;;;;;;;;;;4996182;28;20427;-65
2021/09/10 13:33:00;;;;;;;2.95;1.90;;;;;;;;;;4993654;28;20717;-64
2021/09/10 13:35:28;;;;;;;2.93;1.87;;;;;;;;;;4993697;28;20050;-64
2021/09/10 13:37:53;;;;;;;2.33;1.55;;;;;;;;;;4993583;28;20658;-66
2021/09/10 13:40:21;;;;;;;3.40;1.90;;;;;;;;;;4993589;28;20018;-68
2021/09/10 13:42:46;;;;;;;2.67;1.83;;;;;;;;;;4993662;28;20451;-66
2021/09/10 13:45:14;;;;;;;3.50;1.60;;;;;;;;;;4995166;28;20101;-66
2021/09/10 13:47:39;;;;;;;3.67;2.15;;;;;;;;;;4991947;28;20278;-65
2021/09/10 13:50:07;;;;;;;1.70;1.60;;;;;;;;;;4995567;28;20446;-65
2021/09/10 13:52:32;;;;;;;1.98;1.77;;;;;;;;;;4993587;28;20245;-65
2021/09/10 13:55:00;;;;;;;4.17;1.97;;;;;;;;;;4993659;28;20473;-65
2021/09/10 13:57:25;;;;;;;4.05;2.40;;;;;;;;;;4993334;28;20594;-65
2021/09/10 13:59:51;;;;;;;2.28;1.80;;;;;;;;;;5009220;28;20034;-66
2021/09/10 14:02:16;;;;;;;1.93;1.73;;;;;;;;;;4993739;28;20411;-65
2021/09/10 14:04:44;;;;;;;1.95;1.85;;;;;;;;;;4994004;28;20262;-65
2021/09/10 14:07:09;;;;;;;1.75;1.65;;;;;;;;;;5009239;28;20022;-65
2021/09/10 14:09:34;;;;;;;1.43;1.33;;;;;;;;;;4993818;28;20053;-65
2021/09/10 14:12:02;;;;;;;2.27;1.53;;;;;;;;;;4993983;28;20022;-65
2021/09/10 14:14:27;;;;;;;3.10;1.35;;;;;;;;;;4993861;28;20014;-65
2021/09/10 14:16:53;;;;;;;1.77;1.30;;;;;;;;;;4993656;28;20037;-65
2021/09/10 14:19:18;;;;;;;1.27;1.17;;;;;;;;;;4989032;28;20358;-66
2021/09/10 14:21:43;;;;;;;1.77;1.30;;;;;;;;;;4993876;28;20022;-65
2021/09/10 14:24:08;;;;;;;2.33;1.30;;;;;;;;;;4993661;28;20029;-66
2021/09/10 14:26:36;;;;;;;1.57;1.23;;;;;;;;;;4993770;28;20341;-66
2021/09/10 14:29:01;;;;;;;1.42;1.30;;;;;;;;;;4993936;28;20266;-65
2021/09/10 14:31:27;;;;;;;1.60;1.20;;;;;;;;;;4992417;28;20019;-66
2021/09/10 14:33:53;;;;;;;2.58;1.30;;;;;;;;;;4994063;28;20336;-63
2021/09/10 14:36:19;;;;;;;4.75;1.50;;;;;;;;;;4993296;28;20097;-63
2021/09/10 14:38:44;;;;;;;6.00;1.25;;;;;;;;;;4992863;28;20034;-64
2021/09/10 14:41:09;;;;;;;1.50;1.33;;;;;;;;;;4993135;28;20049;-64